createdAt,value
2022-12-13T00:01:54.977Z,100255.97
2022-12-13T00:07:01.449Z,100252.66
2022-12-13T00:12:04.108Z,100254.81
2022-12-13T00:17:06.876Z,100246.53
2022-12-13T00:22:10.751Z,100233.47
2022-12-13T00:27:13.352Z,100234.88
2022-12-13T00:32:15.947Z,100227.63
2022-12-13T00:37:20.009Z,100225.91
2022-12-13T00:42:22.531Z,100240.50
2022-12-13T00:47:25.023Z,100236.50
2022-12-13T00:52:29.312Z,100222.63
2022-12-13T00:57:31.892Z,100220.13
2022-12-13T01:02:34.529Z,100210.00
2022-12-13T01:07:38.660Z,100213.78
2022-12-13T01:12:41.177Z,100217.97
2022-12-13T01:17:44.118Z,100219.84
2022-12-13T01:22:48.346Z,100215.69
2022-12-13T01:27:51.412Z,100210.53
2022-12-13T01:32:53.952Z,100208.84
2022-12-13T01:37:59.113Z,100201.19
2022-12-13T01:43:01.654Z,100199.06
2022-12-13T01:48:18.880Z,100199.84
2022-12-13T01:53:24.002Z,100204.16
2022-12-13T01:58:29.269Z,100205.50
2022-12-13T02:03:32.709Z,100199.00
2022-12-13T02:08:38.031Z,100196.22
2022-12-13T02:13:40.887Z,100189.50
2022-12-13T02:18:49.755Z,100192.81
2022-12-13T02:24:19.369Z,100182.88
2022-12-13T02:29:39.573Z,100179.91
2022-12-13T02:34:47.063Z,100180.41
2022-12-13T02:39:52.209Z,100192.31
2022-12-13T02:44:58.166Z,100195.59
2022-12-13T02:50:05.194Z,100193.59
2022-12-13T02:55:08.931Z,100190.56
2022-12-13T03:00:13.458Z,100190.91
2022-12-13T03:05:42.252Z,100187.53
2022-12-13T03:10:52.100Z,100183.59
2022-12-13T03:15:57.569Z,100187.72
2022-12-13T03:21:02.490Z,100188.69
2022-12-13T03:26:07.832Z,100193.63
2022-12-13T03:31:12.387Z,100179.34
2022-12-13T03:36:16.932Z,100181.19
2022-12-13T03:41:20.387Z,100175.09
2022-12-13T03:46:23.187Z,100170.63
2022-12-13T03:51:27.072Z,100170.31
2022-12-13T03:56:29.636Z,100167.13
2022-12-13T04:01:32.376Z,100169.78
2022-12-13T04:06:36.252Z,100163.50
2022-12-13T04:11:56.266Z,100161.53
2022-12-13T04:16:58.788Z,100163.53
2022-12-13T04:22:02.664Z,100165.72
2022-12-13T04:27:05.415Z,100155.88
2022-12-13T04:32:26.002Z,100148.00
2022-12-13T04:37:31.394Z,100146.91
2022-12-13T04:42:33.906Z,100141.38
2022-12-13T04:47:36.371Z,100139.00
2022-12-13T04:52:40.714Z,100146.22
2022-12-13T04:57:43.176Z,100147.78
2022-12-13T05:02:45.688Z,100148.88
2022-12-13T05:07:49.592Z,100138.84
2022-12-13T05:12:52.083Z,100139.53
2022-12-13T05:17:54.597Z,100146.81
2022-12-13T05:22:59.013Z,100153.56
2022-12-13T05:28:27.100Z,100152.28
2022-12-13T05:33:24.002Z,100148.47
2022-12-13T05:38:27.847Z,100166.50
2022-12-13T05:43:42.337Z,100157.75
2022-12-13T05:48:46.094Z,100168.81
2022-12-13T05:53:53.303Z,100169.47
2022-12-13T05:58:56.124Z,100164.16
2022-12-13T06:03:59.012Z,100164.66
2022-12-13T06:09:03.729Z,100163.16
2022-12-13T06:14:06.246Z,100170.50
2022-12-13T06:19:25.403Z,100159.22
2022-12-13T06:24:29.154Z,100168.53
2022-12-13T06:29:31.727Z,100169.78
2022-12-13T06:34:34.835Z,100168.50
2022-12-13T06:39:40.055Z,100173.91
2022-12-13T06:44:43.085Z,100170.16
2022-12-13T06:49:46.661Z,100173.75
2022-12-13T06:54:54.205Z,100173.88
2022-12-13T06:59:59.563Z,100177.69
2022-12-13T07:05:02.021Z,100187.53
2022-12-13T07:10:22.944Z,100182.41
2022-12-13T07:15:25.626Z,100186.38
2022-12-13T07:20:28.173Z,100192.97
2022-12-13T07:25:33.586Z,100196.19
2022-12-13T07:30:40.920Z,100196.06
2022-12-13T07:35:44.425Z,100201.75
2022-12-13T07:40:48.371Z,100210.66
2022-12-13T07:45:50.994Z,100211.41
2022-12-13T07:50:54.794Z,100216.81
2022-12-13T07:56:01.986Z,100210.88
2022-12-13T08:01:05.527Z,100226.59
2022-12-13T08:06:08.962Z,100223.09
2022-12-13T08:11:15.410Z,100217.16
2022-12-13T08:16:27.402Z,100223.09
2022-12-13T08:27:01.975Z,100228.91
2022-12-13T08:32:07.351Z,100220.16
2022-12-13T08:37:09.885Z,100222.78
2022-12-13T08:42:18.201Z,100225.94
2022-12-13T08:47:26.044Z,100223.53
2022-12-13T08:52:29.254Z,100223.16
2022-12-13T08:57:33.195Z,100213.47
2022-12-13T09:02:38.426Z,100216.72
2022-12-13T09:07:42.076Z,100215.16
2022-12-13T09:12:45.922Z,100219.66
2022-12-13T09:17:52.085Z,100221.75
2022-12-13T09:23:02.086Z,100217.75
2022-12-13T09:28:06.740Z,100215.94
2022-12-13T09:33:18.218Z,100208.81
2022-12-13T09:38:31.595Z,100205.59
2022-12-13T09:43:43.154Z,100204.72
2022-12-13T09:48:48.389Z,100194.28
2022-12-13T09:53:52.691Z,100194.41
2022-12-13T09:58:57.827Z,100194.31
2022-12-13T10:04:01.665Z,100188.56
2022-12-13T10:09:07.505Z,100192.63
2022-12-13T10:14:13.862Z,100184.25
2022-12-13T10:19:28.900Z,100176.03
2022-12-13T10:24:49.080Z,100181.41
2022-12-13T10:30:00.570Z,100168.50
2022-12-13T10:35:12.594Z,100180.06
2022-12-13T10:40:32.769Z,100172.34
2022-12-13T10:45:37.677Z,100169.44
2022-12-13T10:50:40.523Z,100175.03
2022-12-13T10:55:43.480Z,100171.31
2022-12-13T11:00:49.836Z,100157.44
2022-12-13T11:06:03.088Z,100160.66
2022-12-13T11:11:06.554Z,100170.53
2022-12-13T11:16:28.918Z,100161.94
2022-12-13T11:21:34.667Z,100153.69
2022-12-13T11:26:39.338Z,100148.63
2022-12-13T11:31:47.733Z,100143.63
2022-12-13T11:36:56.230Z,100138.06
2022-12-13T11:42:02.330Z,100126.53
2022-12-13T11:47:07.198Z,100132.59
2022-12-13T11:52:17.605Z,100121.94
2022-12-13T11:57:28.409Z,100122.03
2022-12-13T12:02:34.606Z,100123.81
2022-12-13T12:13:21.501Z,100124.63
2022-12-13T12:18:24.367Z,100114.41
2022-12-13T12:23:41.850Z,100122.09
2022-12-13T12:28:55.870Z,100120.91
2022-12-13T12:34:10.806Z,100111.13
2022-12-13T12:39:26.515Z,100091.47
2022-12-13T12:44:33.672Z,100084.00
2022-12-13T12:49:51.306Z,100079.22
2022-12-13T12:55:03.293Z,100076.53
2022-12-13T13:00:09.704Z,100067.69
2022-12-13T13:05:16.735Z,100069.91
2022-12-13T13:10:26.057Z,100081.81
2022-12-13T13:15:46.303Z,100075.97
2022-12-13T13:21:09.040Z,100078.56
2022-12-13T13:26:27.186Z,100082.59
2022-12-13T13:32:00.946Z,100100.28
2022-12-13T13:37:07.560Z,100109.13
2022-12-13T13:42:17.920Z,100108.59
2022-12-13T13:47:32.727Z,100109.69
2022-12-13T13:52:41.307Z,100114.94
2022-12-13T13:58:09.709Z,100118.69
2022-12-13T14:03:37.194Z,100110.88
2022-12-13T14:08:47.105Z,100099.44
2022-12-13T14:14:23.457Z,100100.22
2022-12-13T14:19:42.306Z,100092.66
2022-12-13T14:24:59.518Z,100083.81
2022-12-13T14:30:17.864Z,100095.00
2022-12-13T14:35:27.141Z,100098.56
2022-12-13T14:40:31.946Z,100091.72
2022-12-13T14:45:37.569Z,100091.84
2022-12-13T14:50:41.992Z,100097.53
2022-12-13T14:56:03.751Z,100094.19
2022-12-13T15:01:24.694Z,100087.53
2022-12-13T15:06:32.274Z,100089.69
2022-12-13T15:11:36.613Z,100087.25
2022-12-13T15:16:40.557Z,100087.66
2022-12-13T15:21:58.621Z,100079.09
2022-12-13T15:27:04.758Z,100081.91
2022-12-13T15:32:12.601Z,100087.47
2022-12-13T15:37:28.431Z,100085.19
2022-12-13T15:42:33.464Z,100090.22
2022-12-13T15:47:37.465Z,100086.50
2022-12-13T15:52:41.192Z,100084.59
2022-12-13T15:57:50.194Z,100075.69
2022-12-13T16:02:56.536Z,100078.81
2022-12-13T16:08:00.602Z,100063.59
2022-12-13T16:13:27.279Z,100067.00
2022-12-13T16:18:32.977Z,100072.09
2022-12-13T16:23:35.397Z,100061.94
2022-12-13T16:28:37.868Z,100048.91
2022-12-13T16:33:42.911Z,100042.75
2022-12-13T16:38:45.797Z,100045.84
2022-12-13T16:43:52.062Z,100053.28
2022-12-13T16:48:56.176Z,100052.84
2022-12-13T16:53:58.723Z,100047.47
2022-12-13T16:59:01.156Z,100042.81
2022-12-13T17:04:11.056Z,100045.34
2022-12-13T17:09:16.417Z,100045.47
2022-12-13T17:14:18.943Z,100046.81
2022-12-13T17:19:22.936Z,100051.28
2022-12-13T17:24:25.437Z,100050.94
2022-12-13T17:29:27.980Z,100048.75
2022-12-13T17:34:31.886Z,100048.47
2022-12-13T17:39:34.365Z,100055.88
2022-12-13T17:44:37.043Z,100049.44
2022-12-13T17:49:40.941Z,100053.56
2022-12-13T17:54:43.393Z,100052.22
2022-12-13T17:59:45.843Z,100047.19
2022-12-13T18:04:49.874Z,100041.03
2022-12-13T18:09:52.373Z,100046.16
2022-12-13T18:14:56.699Z,100039.81
2022-12-13T18:20:00.980Z,100031.81
2022-12-13T18:25:03.570Z,100024.19
2022-12-13T18:30:06.459Z,100021.31
2022-12-13T18:35:10.685Z,100027.81
2022-12-13T18:40:13.357Z,100021.16
2022-12-13T18:45:15.987Z,100031.28
2022-12-13T18:50:20.008Z,100030.44
2022-12-13T18:55:22.517Z,100021.88
2022-12-13T19:00:26.783Z,100033.06
2022-12-13T19:05:30.635Z,100028.47
2022-12-13T19:10:33.285Z,100025.22
2022-12-13T19:15:35.736Z,100018.41
2022-12-13T19:20:40.554Z,100006.88
2022-12-13T19:25:43.105Z,100012.22
2022-12-13T19:30:46.603Z,100008.94
2022-12-13T19:35:50.526Z,100011.75
2022-12-13T19:40:53.277Z,100007.19
2022-12-13T19:45:55.724Z,100009.06
2022-12-13T19:51:03.452Z,100005.88
2022-12-13T19:56:09.294Z,100000.22
2022-12-13T20:01:12.524Z,99994.47
2022-12-13T20:06:17.384Z,99987.88
2022-12-13T20:11:20.897Z,99990.50
2022-12-13T20:16:24.218Z,99983.78
2022-12-13T20:21:28.413Z,99975.88
2022-12-13T20:26:31.861Z,99974.53
2022-12-13T20:31:35.602Z,99959.69
2022-12-13T20:36:39.534Z,99972.03
2022-12-13T20:41:42.326Z,99963.66
2022-12-13T20:46:44.878Z,99962.88
2022-12-13T20:51:48.756Z,99959.66
2022-12-13T20:56:51.286Z,99958.53
2022-12-13T21:01:53.877Z,99953.50
2022-12-13T21:06:58.175Z,99945.13
2022-12-13T21:12:00.603Z,99940.41
2022-12-13T21:17:04.779Z,99926.59
2022-12-13T21:22:08.595Z,99923.84
2022-12-13T21:27:11.049Z,99922.66
2022-12-13T21:32:13.488Z,99916.25
2022-12-13T21:37:17.513Z,99911.84
2022-12-13T21:42:23.098Z,99912.16
2022-12-13T21:47:25.598Z,99904.47
2022-12-13T21:52:46.561Z,99915.25
2022-12-13T21:58:09.582Z,99907.50
2022-12-13T22:03:12.254Z,99901.84
2022-12-13T22:08:16.093Z,99893.81
2022-12-13T22:13:18.721Z,99892.94
2022-12-13T22:18:21.228Z,99895.63
2022-12-13T22:23:25.264Z,99891.75
2022-12-13T22:28:29.703Z,99877.91
2022-12-13T22:33:32.940Z,99873.72
2022-12-13T22:38:36.990Z,99861.13
2022-12-13T22:43:39.656Z,99851.56
2022-12-13T22:48:42.250Z,99858.16
2022-12-13T22:53:47.117Z,99849.47
2022-12-13T22:58:53.927Z,99847.56
2022-12-13T23:03:56.891Z,99848.38
2022-12-13T23:09:01.579Z,99845.91
2022-12-13T23:14:05.160Z,99837.31
2022-12-13T23:19:40.179Z,99831.28
2022-12-13T23:24:34.098Z,99819.22
2022-12-13T23:29:36.867Z,99808.03
2022-12-13T23:34:39.462Z,99809.31
2022-12-13T23:39:43.473Z,99803.53
2022-12-13T23:44:47.755Z,99801.38
2022-12-13T23:49:50.488Z,99798.78
2022-12-13T23:54:54.363Z,99782.31
2022-12-13T23:59:56.913Z,99778.03
